Pilot Vessel Akarana — ZMT2938 — position and weather

sailwx.info

Track history (hours):
 
Tides and Currents Weather Stations Pressure Air Temp Water Temp Dewpoint Dewpoint Depression Visibility Wind Speed Wind Dir Waves Ship Positions

Pilot Vessel Akarana

Last reported at 2014-Oct-25 08:34 UTC. Time now 2014-Oct-25 20:41 UTC.
Position S 36°45' E 174°50'.

Length 15 m; draft 1.6 m.

Type: Pilot. MMSI: 512000344.

Date/timePositionNaut miles runAvg speedWind from/ knotsBaromVisibWave heightAir tempDewpointWater temp
2014-Oct-25 08:34S 36°45' E 174°50'6 6.1
2014-Oct-25 07:33S 36°51' E 174°47'0 0.0
2014-Oct-25 06:32S 36°51' E 174°47'0 0.0
2014-Oct-25 05:32S 36°51' E 174°47'0 0.0
2014-Oct-25 04:34S 36°51' E 174°47'1 1.1
2014-Oct-25 03:33S 36°50' E 174°48'2 2.5
2014-Oct-25 02:33S 36°48' E 174°49'3 3.3
2014-Oct-25 01:33S 36°51' E 174°47'0 0.0
2014-Oct-25 00:33S 36°51' E 174°47'6 6.0
2014-Oct-24 23:33S 36°45' E 174°50'6 6.0
2014-Oct-24 22:33S 36°51' E 174°47'1 1.2
2014-Oct-24 21:30S 36°51' E 174°48'1 1.3
2014-Oct-24 20:33S 36°51' E 174°47'0 0.0
2014-Oct-24 19:31S 36°51' E 174°47'0 0.0
2014-Oct-24 18:33S 36°51' E 174°47'7 6.8
2014-Oct-24 17:33S 36°44' E 174°50'6 6.4
2014-Oct-24 16:33S 36°50' E 174°47'5 0.3
2014-Oct-24 01:33S 36°46' E 174°49'5 0.2
2014-Oct-23 02:13S 36°51' E 174°47'0 0.0
2014-Oct-23 01:33S 36°51' E 174°47'1 0.8
2014-Oct-23 00:33S 36°50' E 174°46'6 6.5
2014-Oct-22 23:34S 36°49' E 174°54'7 6.9
2014-Oct-22 22:29S 36°50' E 174°45'  
Track history (hours):
 
Tides and Currents Weather Stations Pressure Air Temp Water Temp Dewpoint Dewpoint Depression Visibility Wind Speed Wind Dir Waves Ship Positions

Pilot Vessel Akarana

Last reported at 2014-Oct-25 08:34 UTC. Time now 2014-Oct-25 20:41 UTC.
Position S 36°45' E 174°50'.

Length 15 m; draft 1.6 m.

Type: Pilot. MMSI: 512000344.

Date/timePositionNaut miles runAvg speedWind from/ knotsBaromVisibWave heightAir tempDewpointWater temp
2014-Oct-25 08:34S 36°45' E 174°50'6 6.1
2014-Oct-25 07:33S 36°51' E 174°47'0 0.0
2014-Oct-25 06:32S 36°51' E 174°47'0 0.0
2014-Oct-25 05:32S 36°51' E 174°47'0 0.0
2014-Oct-25 04:34S 36°51' E 174°47'1 1.1
2014-Oct-25 03:33S 36°50' E 174°48'2 2.5
2014-Oct-25 02:33S 36°48' E 174°49'3 3.3
2014-Oct-25 01:33S 36°51' E 174°47'0 0.0
2014-Oct-25 00:33S 36°51' E 174°47'6 6.0
2014-Oct-24 23:33S 36°45' E 174°50'6 6.0
2014-Oct-24 22:33S 36°51' E 174°47'1 1.2
2014-Oct-24 21:30S 36°51' E 174°48'1 1.3
2014-Oct-24 20:33S 36°51' E 174°47'0 0.0
2014-Oct-24 19:31S 36°51' E 174°47'0 0.0
2014-Oct-24 18:33S 36°51' E 174°47'7 6.8
2014-Oct-24 17:33S 36°44' E 174°50'6 6.4
2014-Oct-24 16:33S 36°50' E 174°47'5 0.3
2014-Oct-24 01:33S 36°46' E 174°49'5 0.2
2014-Oct-23 02:13S 36°51' E 174°47'0 0.0
2014-Oct-23 01:33S 36°51' E 174°47'1 0.8
2014-Oct-23 00:33S 36°50' E 174°46'6 6.5
2014-Oct-22 23:34S 36°49' E 174°54'7 6.9
2014-Oct-22 22:29S 36°50' E 174°45'  

Dump ship's entire track history